createdAt,value
2022-10-19T00:00:17.437Z,1021.60
2022-10-19T00:01:17.413Z,1021.64
2022-10-19T00:02:17.541Z,1021.67
2022-10-19T00:03:20.778Z,1021.69
2022-10-19T00:04:17.400Z,1021.71
2022-10-19T00:05:17.375Z,1021.72
2022-10-19T00:06:17.390Z,1021.72
2022-10-19T00:07:17.351Z,1021.72
2022-10-19T00:08:17.353Z,1021.72
2022-10-19T00:09:17.388Z,1021.70
2022-10-19T00:10:17.329Z,1021.69
2022-10-19T00:11:17.308Z,1021.68
2022-10-19T00:12:17.312Z,1021.67
2022-10-19T00:13:17.284Z,1021.64
2022-10-19T00:14:17.289Z,1021.62
2022-10-19T00:15:17.292Z,1021.58
2022-10-19T00:16:17.307Z,1021.56
2022-10-19T00:17:17.246Z,1021.54
2022-10-19T00:18:17.243Z,1021.52
2022-10-19T00:19:17.221Z,1021.52
2022-10-19T00:20:17.230Z,1021.51
2022-10-19T00:21:17.242Z,1021.51
2022-10-19T00:22:17.218Z,1021.50
2022-10-19T00:23:17.175Z,1021.50
2022-10-19T00:24:17.200Z,1021.49
2022-10-19T00:25:17.156Z,1021.48
2022-10-19T00:26:17.158Z,1021.47
2022-10-19T00:27:17.163Z,1021.46
2022-10-19T00:28:17.149Z,1021.46
2022-10-19T00:29:17.111Z,1021.45
2022-10-19T00:30:17.120Z,1021.43
2022-10-19T00:31:17.155Z,1021.42
2022-10-19T00:32:17.101Z,1021.42
2022-10-19T00:33:17.103Z,1021.44
2022-10-19T00:34:17.077Z,1021.45
2022-10-19T00:35:17.051Z,1021.46
2022-10-19T00:36:17.052Z,1021.46
2022-10-19T00:37:17.062Z,1021.46
2022-10-19T00:38:17.040Z,1021.46
2022-10-19T00:39:19.201Z,1021.46
2022-10-19T00:40:17.009Z,1021.44
2022-10-19T00:41:16.982Z,1021.44
2022-10-19T00:42:17.008Z,1021.42
2022-10-19T00:43:16.996Z,1021.42
2022-10-19T00:44:16.976Z,1021.41
2022-10-19T00:45:16.983Z,1021.41
2022-10-19T00:46:16.954Z,1021.40
2022-10-19T00:47:16.923Z,1021.39
2022-10-19T00:48:16.936Z,1021.39
2022-10-19T00:49:16.903Z,1021.40
2022-10-19T00:50:16.907Z,1021.40
2022-10-19T00:51:16.944Z,1021.41
2022-10-19T00:52:16.889Z,1021.40
2022-10-19T00:53:16.862Z,1021.40
2022-10-19T00:54:16.865Z,1021.41
2022-10-19T00:55:16.856Z,1021.42
2022-10-19T00:56:16.844Z,1021.43
2022-10-19T00:57:16.844Z,1021.45
2022-10-19T00:58:16.821Z,1021.46
2022-10-19T00:59:16.799Z,1021.46
2022-10-19T01:00:16.808Z,1021.47
2022-10-19T01:01:16.824Z,1021.48
2022-10-19T01:02:16.783Z,1021.47
2022-10-19T01:03:16.794Z,1021.47
2022-10-19T01:04:16.760Z,1021.47
2022-10-19T01:05:16.733Z,1021.46
2022-10-19T01:06:16.750Z,1021.46
2022-10-19T01:07:16.719Z,1021.45
2022-10-19T01:08:16.743Z,1021.45
2022-10-19T01:09:16.731Z,1021.45
2022-10-19T01:10:16.695Z,1021.44
2022-10-19T01:11:16.685Z,1021.43
2022-10-19T01:12:16.671Z,1021.41
2022-10-19T01:13:16.643Z,1021.39
2022-10-19T01:14:16.648Z,1021.38
2022-10-19T01:15:16.661Z,1021.37
2022-10-19T01:16:16.633Z,1021.37
2022-10-19T01:17:16.630Z,1021.37
2022-10-19T01:18:16.610Z,1021.37
2022-10-19T01:19:16.586Z,1021.36
2022-10-19T01:20:16.586Z,1021.36
2022-10-19T01:21:16.587Z,1021.34
2022-10-19T01:22:16.564Z,1021.33
2022-10-19T01:23:16.552Z,1021.33
2022-10-19T01:24:16.553Z,1021.33
2022-10-19T01:25:16.517Z,1021.35
2022-10-19T01:26:16.528Z,1021.37
2022-10-19T01:27:16.522Z,1021.39
2022-10-19T01:28:16.509Z,1021.40
2022-10-19T01:29:16.501Z,1021.40
2022-10-19T01:30:16.476Z,1021.39
2022-10-19T01:31:16.509Z,1021.39
2022-10-19T01:32:16.450Z,1021.39
2022-10-19T01:33:16.479Z,1021.38
2022-10-19T01:34:16.426Z,1021.37
2022-10-19T01:35:16.427Z,1021.37
2022-10-19T01:36:16.434Z,1021.37
2022-10-19T01:37:16.405Z,1021.38
2022-10-19T01:38:16.383Z,1021.39
2022-10-19T01:39:16.411Z,1021.40
2022-10-19T01:40:16.366Z,1021.41
2022-10-19T01:41:16.376Z,1021.40
2022-10-19T01:42:16.343Z,1021.41
2022-10-19T01:43:16.342Z,1021.41
2022-10-19T01:44:16.314Z,1021.41
2022-10-19T01:45:16.370Z,1021.40
2022-10-19T01:46:16.298Z,1021.38
2022-10-19T01:47:16.319Z,1021.37
2022-10-19T01:48:16.275Z,1021.36
2022-10-19T01:49:16.281Z,1021.35
2022-10-19T01:50:16.277Z,1021.34
2022-10-19T01:51:16.300Z,1021.34
2022-10-19T01:52:16.245Z,1021.32
2022-10-19T01:53:16.245Z,1021.30
2022-10-19T01:54:16.216Z,1021.29
2022-10-19T01:55:16.221Z,1021.27
2022-10-19T01:56:16.205Z,1021.25
2022-10-19T01:57:16.261Z,1021.22
2022-10-19T01:58:16.170Z,1021.21
2022-10-19T01:59:16.180Z,1021.20
2022-10-19T02:00:16.150Z,1021.18
2022-10-19T02:01:16.161Z,1021.16
2022-10-19T02:02:16.135Z,1021.15
2022-10-19T02:03:16.171Z,1021.13
2022-10-19T02:04:16.114Z,1021.10
2022-10-19T02:05:16.115Z,1021.09
2022-10-19T02:06:16.091Z,1021.10
2022-10-19T02:07:16.093Z,1021.11
2022-10-19T02:08:16.068Z,1021.14
2022-10-19T02:09:16.113Z,1021.17
2022-10-19T02:10:16.086Z,1021.18
2022-10-19T02:11:16.052Z,1021.18
2022-10-19T02:12:16.027Z,1021.18
2022-10-19T02:13:16.041Z,1021.17
2022-10-19T02:14:15.999Z,1021.17
2022-10-19T02:15:19.453Z,1021.17
2022-10-19T02:16:15.983Z,1021.16
2022-10-19T02:17:16.000Z,1021.16
2022-10-19T02:18:15.971Z,1021.18
2022-10-19T02:19:15.977Z,1021.19
2022-10-19T02:20:15.956Z,1021.20
2022-10-19T02:21:15.974Z,1021.21
2022-10-19T02:22:15.913Z,1021.21
2022-10-19T02:23:15.927Z,1021.20
2022-10-19T02:24:15.896Z,1021.20
2022-10-19T02:25:15.901Z,1021.20
2022-10-19T02:26:15.871Z,1021.20
2022-10-19T02:27:15.910Z,1021.19
2022-10-19T02:28:15.970Z,1021.19
2022-10-19T02:29:15.862Z,1021.19
2022-10-19T02:30:15.848Z,1021.19
2022-10-19T02:31:15.842Z,1021.19
2022-10-19T02:32:15.816Z,1021.19
2022-10-19T02:33:15.842Z,1021.19
2022-10-19T02:34:15.799Z,1021.20
2022-10-19T02:35:15.793Z,1021.20
2022-10-19T02:36:15.775Z,1021.20
2022-10-19T02:37:15.841Z,1021.21
2022-10-19T02:38:15.765Z,1021.20
2022-10-19T02:39:15.802Z,1021.20
2022-10-19T02:40:15.739Z,1021.20
2022-10-19T02:41:15.734Z,1021.20
2022-10-19T02:42:15.707Z,1021.21
2022-10-19T02:43:15.719Z,1021.22
2022-10-19T02:44:15.690Z,1021.23
2022-10-19T02:45:15.718Z,1021.24
2022-10-19T02:46:15.669Z,1021.25
2022-10-19T02:47:15.670Z,1021.24
2022-10-19T02:48:15.658Z,1021.24
2022-10-19T02:49:15.658Z,1021.24
2022-10-19T02:50:15.631Z,1021.24
2022-10-19T02:51:15.668Z,1021.24
2022-10-19T02:52:15.596Z,1021.23
2022-10-19T02:53:15.603Z,1021.24
2022-10-19T02:54:15.588Z,1021.23
2022-10-19T02:55:15.582Z,1021.23
2022-10-19T02:56:15.568Z,1021.23
2022-10-19T02:57:15.611Z,1021.23
2022-10-19T02:58:15.543Z,1021.23
2022-10-19T02:59:15.541Z,1021.25
2022-10-19T03:00:15.518Z,1021.26
2022-10-19T03:01:15.590Z,1021.27
2022-10-19T03:02:15.497Z,1021.27
2022-10-19T03:03:15.539Z,1021.28
2022-10-19T03:04:15.484Z,1021.29
2022-10-19T03:05:15.487Z,1021.29
2022-10-19T03:06:15.470Z,1021.29
2022-10-19T03:07:15.454Z,1021.29
2022-10-19T03:08:15.433Z,1021.29
2022-10-19T03:09:15.474Z,1021.29
2022-10-19T03:10:15.414Z,1021.29
2022-10-19T03:11:15.416Z,1021.30
2022-10-19T03:12:15.395Z,1021.29
2022-10-19T03:13:15.405Z,1021.29
2022-10-19T03:14:15.372Z,1021.29
2022-10-19T03:15:15.403Z,1021.29
2022-10-19T03:16:15.367Z,1021.27
2022-10-19T03:17:15.347Z,1021.27
2022-10-19T03:18:15.334Z,1021.27
2022-10-19T03:19:15.330Z,1021.26
2022-10-19T03:20:15.299Z,1021.25
2022-10-19T03:21:15.420Z,1021.24
2022-10-19T03:22:15.285Z,1021.22
2022-10-19T03:23:15.282Z,1021.21
2022-10-19T03:24:15.263Z,1021.19
2022-10-19T03:25:15.270Z,1021.18
2022-10-19T03:26:15.249Z,1021.16
2022-10-19T03:27:15.280Z,1021.15
2022-10-19T03:28:15.221Z,1021.13
2022-10-19T03:29:15.226Z,1021.12
2022-10-19T03:30:15.202Z,1021.12
2022-10-19T03:31:15.197Z,1021.12
2022-10-19T03:32:15.185Z,1021.12
2022-10-19T03:33:15.309Z,1021.13
2022-10-19T03:34:15.165Z,1021.14
2022-10-19T03:35:15.163Z,1021.13
2022-10-19T03:36:15.153Z,1021.13
2022-10-19T03:37:15.139Z,1021.12
2022-10-19T03:38:15.132Z,1021.12
2022-10-19T03:39:15.149Z,1021.10
2022-10-19T03:40:15.096Z,1021.07
2022-10-19T03:41:15.098Z,1021.06
2022-10-19T03:42:15.094Z,1021.04
2022-10-19T03:43:15.082Z,1021.03
2022-10-19T03:44:15.064Z,1021.02
2022-10-19T03:45:15.113Z,1021.02
2022-10-19T03:46:15.047Z,1021.03
2022-10-19T03:47:15.031Z,1021.05
2022-10-19T03:48:15.019Z,1021.06
2022-10-19T03:49:15.013Z,1021.06
2022-10-19T03:50:14.987Z,1021.06
2022-10-19T03:51:15.042Z,1021.06
2022-10-19T03:52:14.970Z,1021.07
2022-10-19T03:53:14.973Z,1021.08
2022-10-19T03:54:14.947Z,1021.10
2022-10-19T03:55:14.948Z,1021.12
2022-10-19T03:56:14.925Z,1021.13
2022-10-19T03:57:14.957Z,1021.15
2022-10-19T03:58:14.902Z,1021.16
2022-10-19T03:59:14.908Z,1021.17
2022-10-19T04:00:14.894Z,1021.18
2022-10-19T04:01:14.931Z,1021.18
2022-10-19T04:02:14.865Z,1021.17
2022-10-19T04:03:14.898Z,1021.17
2022-10-19T04:04:14.839Z,1021.16
2022-10-19T04:05:14.840Z,1021.15
2022-10-19T04:06:17.033Z,1021.15
2022-10-19T04:07:14.819Z,1021.15
2022-10-19T04:08:14.802Z,1021.17
2022-10-19T04:09:14.841Z,1021.18
2022-10-19T04:10:14.771Z,1021.19
2022-10-19T04:11:14.792Z,1021.20
2022-10-19T04:12:14.763Z,1021.21
2022-10-19T04:13:14.760Z,1021.22
2022-10-19T04:14:22.657Z,1021.24
2022-10-19T04:15:14.784Z,1021.26
2022-10-19T04:16:14.725Z,1021.27
2022-10-19T04:17:14.709Z,1021.29
2022-10-19T04:18:14.692Z,1021.28
2022-10-19T04:19:14.698Z,1021.28
2022-10-19T04:20:14.669Z,1021.28
2022-10-19T04:21:14.722Z,1021.28
2022-10-19T04:22:14.657Z,1021.29
2022-10-19T04:23:14.660Z,1021.28
2022-10-19T04:24:14.637Z,1021.27
2022-10-19T04:25:14.625Z,1021.24
2022-10-19T04:26:14.606Z,1021.23
2022-10-19T04:27:14.727Z,1021.23
2022-10-19T04:28:14.581Z,1021.21
2022-10-19T04:29:14.679Z,1021.20
2022-10-19T04:30:14.572Z,1021.19
2022-10-19T04:31:14.567Z,1021.19
2022-10-19T04:32:14.543Z,1021.20
2022-10-19T04:33:14.711Z,1021.19
2022-10-19T04:34:14.533Z,1021.17
2022-10-19T04:35:14.530Z,1021.17
2022-10-19T04:36:14.505Z,1021.17
2022-10-19T04:37:14.510Z,1021.17
2022-10-19T04:38:14.534Z,1021.16
2022-10-19T04:39:14.524Z,1021.16
2022-10-19T04:40:15.088Z,1021.15
2022-10-19T04:41:14.468Z,1021.14
2022-10-19T04:42:14.452Z,1021.13
2022-10-19T04:43:14.448Z,1021.13
2022-10-19T04:44:14.472Z,1021.11
2022-10-19T04:45:14.496Z,1021.10
2022-10-19T04:46:14.392Z,1021.09
2022-10-19T04:47:14.395Z,1021.10
2022-10-19T04:48:15.216Z,1021.09
2022-10-19T04:49:16.516Z,1021.09
2022-10-19T04:50:14.358Z,1021.08
2022-10-19T04:51:14.393Z,1021.08
2022-10-19T04:52:14.340Z,1021.08
2022-10-19T04:53:14.420Z,1021.08
2022-10-19T04:54:14.319Z,1021.09
2022-10-19T04:55:14.317Z,1021.10
2022-10-19T04:56:14.294Z,1021.11
2022-10-19T04:57:14.315Z,1021.11
2022-10-19T04:58:14.270Z,1021.10
2022-10-19T04:59:14.285Z,1021.10
2022-10-19T05:00:14.249Z,1021.09
2022-10-19T05:01:14.320Z,1021.10
2022-10-19T05:02:14.242Z,1021.11
2022-10-19T05:03:14.277Z,1021.13
2022-10-19T05:04:14.207Z,1021.14
2022-10-19T05:05:14.216Z,1021.14
2022-10-19T05:06:14.183Z,1021.15
2022-10-19T05:07:14.207Z,1021.15
2022-10-19T05:08:14.158Z,1021.12
2022-10-19T05:09:14.200Z,1021.10
2022-10-19T05:10:14.136Z,1021.08
2022-10-19T05:11:14.238Z,1021.06
2022-10-19T05:12:14.120Z,1021.04
2022-10-19T05:13:14.117Z,1021.02
2022-10-19T05:14:14.159Z,1021.00
2022-10-19T05:15:14.137Z,1020.97
2022-10-19T05:16:14.074Z,1020.96
2022-10-19T05:17:14.079Z,1020.95
2022-10-19T05:18:14.051Z,1020.94
2022-10-19T05:19:14.065Z,1020.94
2022-10-19T05:20:14.093Z,1020.94
2022-10-19T05:21:14.033Z,1020.95
2022-10-19T05:22:14.019Z,1020.94
2022-10-19T05:23:14.021Z,1020.94
2022-10-19T05:24:13.991Z,1020.93
2022-10-19T05:25:14.000Z,1020.93
2022-10-19T05:26:13.995Z,1020.92
2022-10-19T05:27:13.977Z,1020.92
2022-10-19T05:28:13.976Z,1020.92
2022-10-19T05:29:13.955Z,1020.93
2022-10-19T05:30:13.932Z,1020.93
2022-10-19T05:31:13.958Z,1020.93
2022-10-19T05:32:13.905Z,1020.93
2022-10-19T05:33:13.905Z,1020.94
2022-10-19T05:34:13.884Z,1020.94
2022-10-19T05:35:16.385Z,1020.94
2022-10-19T05:36:13.861Z,1020.94
2022-10-19T05:37:13.883Z,1020.95
2022-10-19T05:38:13.846Z,1020.96
2022-10-19T05:39:13.853Z,1020.97
2022-10-19T05:40:13.819Z,1020.97
2022-10-19T05:41:13.819Z,1020.98
2022-10-19T05:42:13.833Z,1020.98
2022-10-19T05:43:13.814Z,1020.98
2022-10-19T05:44:13.777Z,1020.98
2022-10-19T05:45:13.767Z,1020.98
2022-10-19T05:46:13.765Z,1020.97
2022-10-19T05:47:13.755Z,1020.98
2022-10-19T05:48:13.775Z,1020.98
2022-10-19T05:49:13.722Z,1020.98
2022-10-19T05:50:13.723Z,1020.98
2022-10-19T05:51:13.700Z,1020.96
2022-10-19T05:52:13.714Z,1020.96
2022-10-19T05:53:13.717Z,1020.95
2022-10-19T05:54:13.692Z,1020.94
2022-10-19T05:55:13.659Z,1020.93
2022-10-19T05:56:13.681Z,1020.92
2022-10-19T05:57:13.829Z,1020.92
2022-10-19T05:58:13.643Z,1020.93
2022-10-19T05:59:13.754Z,1020.95
2022-10-19T06:00:13.624Z,1020.96
2022-10-19T06:01:13.615Z,1020.96
2022-10-19T06:02:13.658Z,1020.97
2022-10-19T06:03:13.585Z,1020.96
2022-10-19T06:04:13.601Z,1020.95
2022-10-19T06:05:13.595Z,1020.96
2022-10-19T06:06:13.565Z,1020.98
2022-10-19T06:07:13.575Z,1021.00
2022-10-19T06:08:13.534Z,1021.00
2022-10-19T06:09:13.516Z,1021.00
2022-10-19T06:10:13.534Z,1020.98
2022-10-19T06:11:13.529Z,1020.96
2022-10-19T06:12:15.760Z,1020.96
2022-10-19T06:13:13.473Z,1020.96
2022-10-19T06:14:13.483Z,1020.97
2022-10-19T06:15:13.453Z,1020.98
2022-10-19T06:16:13.451Z,1020.99
2022-10-19T06:17:13.487Z,1021.00
2022-10-19T06:18:13.446Z,1020.99
2022-10-19T06:19:13.405Z,1020.98
2022-10-19T06:20:13.404Z,1020.96
2022-10-19T06:21:13.385Z,1020.95
2022-10-19T06:22:13.402Z,1020.95
2022-10-19T06:23:13.389Z,1020.94
2022-10-19T06:24:13.369Z,1020.94
2022-10-19T06:25:16.625Z,1020.95
2022-10-19T06:26:13.364Z,1020.95
2022-10-19T06:27:13.483Z,1020.96
2022-10-19T06:28:13.326Z,1020.97
2022-10-19T06:29:13.337Z,1020.98
2022-10-19T06:30:13.436Z,1021.00
2022-10-19T06:31:13.277Z,1021.02
2022-10-19T06:32:13.285Z,1021.05
2022-10-19T06:33:13.276Z,1021.05
2022-10-19T06:34:13.378Z,1021.07
2022-10-19T06:35:13.261Z,1021.07
2022-10-19T06:36:13.249Z,1021.08
2022-10-19T06:37:13.214Z,1021.10
2022-10-19T06:38:13.228Z,1021.12
2022-10-19T06:39:13.216Z,1021.14
2022-10-19T06:40:13.238Z,1021.15
2022-10-19T06:41:13.239Z,1021.16
2022-10-19T06:42:13.174Z,1021.21
2022-10-19T06:43:13.170Z,1021.23
2022-10-19T06:44:13.152Z,1021.22
2022-10-19T06:45:13.133Z,1021.22
2022-10-19T06:46:13.135Z,1021.24
2022-10-19T06:47:13.163Z,1021.23
2022-10-19T06:48:13.114Z,1021.23
2022-10-19T06:49:13.086Z,1021.24
2022-10-19T06:50:13.093Z,1021.25
2022-10-19T06:51:13.075Z,1021.25
2022-10-19T06:52:13.074Z,1021.23
2022-10-19T06:53:13.083Z,1021.24
2022-10-19T06:54:13.151Z,1021.24
2022-10-19T06:55:13.036Z,1021.22
2022-10-19T06:56:13.044Z,1021.21
2022-10-19T06:57:13.009Z,1021.23
2022-10-19T06:58:13.010Z,1021.25
2022-10-19T06:59:14.092Z,1021.24
2022-10-19T07:00:12.997Z,1021.27
2022-10-19T07:01:13.045Z,1021.24
2022-10-19T07:02:12.968Z,1021.19
2022-10-19T07:03:12.948Z,1021.21
2022-10-19T07:04:12.956Z,1021.24
2022-10-19T07:05:12.965Z,1021.21
2022-10-19T07:06:12.942Z,1021.22
2022-10-19T07:07:12.901Z,1021.27
2022-10-19T07:08:12.963Z,1021.29
2022-10-19T07:09:12.878Z,1021.26
2022-10-19T07:10:12.882Z,1021.26
2022-10-19T07:11:12.902Z,1021.25
2022-10-19T07:12:12.856Z,1021.25
2022-10-19T07:13:12.842Z,1021.27
2022-10-19T07:14:12.856Z,1021.27
2022-10-19T07:15:12.816Z,1021.25
2022-10-19T07:16:16.146Z,1021.25
2022-10-19T07:17:12.830Z,1021.28
2022-10-19T07:18:12.831Z,1021.25
2022-10-19T07:19:12.771Z,1021.24
2022-10-19T07:20:12.777Z,1021.24
2022-10-19T07:21:12.756Z,1021.23
2022-10-19T07:22:18.637Z,1021.20
2022-10-19T07:23:12.768Z,1021.20
2022-10-19T07:24:12.732Z,1021.21
2022-10-19T07:25:12.733Z,1021.21
2022-10-19T07:26:12.718Z,1021.20
2022-10-19T07:27:13.010Z,1021.21
2022-10-19T07:28:12.690Z,1021.19
2022-10-19T07:29:12.696Z,1021.17
2022-10-19T07:30:12.684Z,1021.16
2022-10-19T07:31:12.646Z,1021.16
2022-10-19T07:32:12.650Z,1021.14
2022-10-19T07:33:12.644Z,1021.14
2022-10-19T07:34:12.628Z,1021.13
2022-10-19T07:35:12.641Z,1021.16
2022-10-19T07:36:12.610Z,1021.13
2022-10-19T07:37:12.579Z,1021.12
2022-10-19T07:38:12.587Z,1021.11
2022-10-19T07:39:12.575Z,1021.13
2022-10-19T07:40:12.564Z,1021.14
2022-10-19T07:41:12.588Z,1021.12
2022-10-19T07:42:12.643Z,1021.11
2022-10-19T07:43:12.529Z,1021.12
2022-10-19T07:44:15.549Z,1021.14
2022-10-19T07:45:12.501Z,1021.14
2022-10-19T07:46:12.512Z,1021.13
2022-10-19T07:47:12.517Z,1021.14
2022-10-19T07:48:12.479Z,1021.17
2022-10-19T07:49:12.463Z,1021.14
2022-10-19T07:50:12.457Z,1021.12
2022-10-19T07:51:12.435Z,1021.11
2022-10-19T07:52:12.439Z,1021.10
2022-10-19T07:53:12.444Z,1021.11
2022-10-19T07:54:12.414Z,1021.12
2022-10-19T07:55:12.393Z,1021.11
2022-10-19T07:56:12.417Z,1021.10
2022-10-19T07:57:12.373Z,1021.11
2022-10-19T07:58:12.387Z,1021.12
2022-10-19T07:59:12.382Z,1021.14
2022-10-19T08:00:12.351Z,1021.14
2022-10-19T08:01:12.326Z,1021.13
2022-10-19T08:02:12.392Z,1021.12
2022-10-19T08:03:57.160Z,1021.13
2022-10-19T08:04:59.445Z,1021.14
2022-10-19T08:05:12.891Z,1021.16
2022-10-19T08:06:12.294Z,1021.16
2022-10-19T08:07:12.273Z,1021.14
2022-10-19T08:08:12.267Z,1021.15
2022-10-19T08:09:27.780Z,1021.14
2022-10-19T08:10:12.279Z,1021.14
2022-10-19T08:11:12.230Z,1021.14
2022-10-19T08:12:15.080Z,1021.14
2022-10-19T08:13:12.197Z,1021.13
2022-10-19T08:14:12.204Z,1021.11
2022-10-19T08:15:12.194Z,1021.11
2022-10-19T08:16:12.205Z,1021.13
2022-10-19T08:17:12.154Z,1021.15
2022-10-19T08:18:12.170Z,1021.14
2022-10-19T08:19:12.151Z,1021.15
2022-10-19T08:20:12.142Z,1021.15
2022-10-19T08:21:12.119Z,1021.16
2022-10-19T08:22:12.148Z,1021.16
2022-10-19T08:23:12.099Z,1021.17
2022-10-19T08:24:12.098Z,1021.17
2022-10-19T08:25:12.081Z,1021.18
2022-10-19T08:26:12.075Z,1021.18
2022-10-19T08:27:12.052Z,1021.18
2022-10-19T08:28:12.083Z,1021.19
2022-10-19T08:29:12.032Z,1021.18
2022-10-19T08:30:12.034Z,1021.18
2022-10-19T08:31:12.009Z,1021.18
2022-10-19T08:32:12.014Z,1021.16
2022-10-19T08:33:11.983Z,1021.15
2022-10-19T08:34:12.014Z,1021.14
2022-10-19T08:35:11.963Z,1021.12
2022-10-19T08:36:11.970Z,1021.13
2022-10-19T08:37:25.654Z,1021.12
2022-10-19T08:38:11.953Z,1021.10
2022-10-19T08:39:11.949Z,1021.07
2022-10-19T08:40:11.939Z,1021.06
2022-10-19T08:41:11.903Z,1021.06
2022-10-19T08:42:11.906Z,1021.05
2022-10-19T08:43:11.881Z,1021.04
2022-10-19T08:44:11.879Z,1021.04
2022-10-19T08:45:11.881Z,1021.02
2022-10-19T08:46:11.861Z,1021.00
2022-10-19T08:47:12.537Z,1020.97
2022-10-19T08:48:11.979Z,1020.94
2022-10-19T08:49:11.843Z,1020.91
2022-10-19T08:50:11.840Z,1020.90
2022-10-19T08:51:11.820Z,1020.90
2022-10-19T08:52:11.794Z,1020.90
2022-10-19T08:53:11.792Z,1020.90
2022-10-19T08:54:11.774Z,1020.93
2022-10-19T08:55:15.039Z,1020.95
2022-10-19T08:56:15.027Z,1020.98
2022-10-19T08:57:11.740Z,1020.99
2022-10-19T08:58:11.751Z,1020.99
2022-10-19T08:59:11.706Z,1020.98
2022-10-19T09:00:11.717Z,1020.99
2022-10-19T09:01:11.742Z,1020.98
2022-10-19T09:02:11.688Z,1020.97
2022-10-19T09:03:11.694Z,1020.98
2022-10-19T09:04:11.672Z,1021.00
2022-10-19T09:05:11.689Z,1021.02
2022-10-19T09:06:11.649Z,1021.05
2022-10-19T09:07:11.669Z,1021.08
2022-10-19T09:08:16.696Z,1021.12
2022-10-19T09:09:11.606Z,1021.12
2022-10-19T09:10:11.599Z,1021.13
2022-10-19T09:11:11.580Z,1021.14
2022-10-19T09:12:11.636Z,1021.13
2022-10-19T09:13:11.563Z,1021.12
2022-10-19T09:14:11.561Z,1021.12
2022-10-19T09:15:11.553Z,1021.12
2022-10-19T09:16:11.539Z,1021.12
2022-10-19T09:17:11.512Z,1021.12
2022-10-19T09:18:11.542Z,1021.11
2022-10-19T09:19:11.544Z,1021.12
2022-10-19T09:20:11.540Z,1021.09
2022-10-19T09:21:11.482Z,1021.09
2022-10-19T09:22:11.473Z,1021.08
2022-10-19T09:23:13.483Z,1021.07
2022-10-19T09:24:11.453Z,1021.06
2022-10-19T09:25:11.466Z,1021.05
2022-10-19T09:26:11.431Z,1021.04
2022-10-19T09:27:11.426Z,1021.04
2022-10-19T09:28:11.410Z,1021.03
2022-10-19T09:29:11.418Z,1021.02
2022-10-19T09:30:11.395Z,1021.01
2022-10-19T09:31:11.370Z,1021.01
2022-10-19T09:32:11.369Z,1021.01
2022-10-19T09:33:15.253Z,1020.99
2022-10-19T09:34:11.367Z,1020.97
2022-10-19T09:35:11.326Z,1020.95
2022-10-19T09:36:22.301Z,1020.95
2022-10-19T09:37:15.989Z,1020.95
2022-10-19T09:38:11.309Z,1020.94
2022-10-19T09:39:11.281Z,1020.92
2022-10-19T09:40:11.306Z,1020.90
2022-10-19T09:41:11.258Z,1020.87
2022-10-19T09:42:11.288Z,1020.83
2022-10-19T09:43:11.238Z,1020.82
2022-10-19T09:44:11.237Z,1020.81
2022-10-19T09:45:11.259Z,1020.80
2022-10-19T09:46:19.477Z,1020.80
2022-10-19T09:47:13.672Z,1020.81
2022-10-19T09:48:13.140Z,1020.82
2022-10-19T09:49:11.192Z,1020.83
2022-10-19T09:50:11.179Z,1020.84
2022-10-19T09:51:11.175Z,1020.85
2022-10-19T09:52:11.177Z,1020.85
2022-10-19T09:53:11.132Z,1020.84
2022-10-19T09:54:11.132Z,1020.82
2022-10-19T09:55:11.107Z,1020.79
2022-10-19T09:56:11.109Z,1020.77
2022-10-19T09:57:11.163Z,1020.76
2022-10-19T09:58:11.107Z,1020.73
2022-10-19T09:59:11.063Z,1020.73
2022-10-19T10:00:11.081Z,1020.76
2022-10-19T10:01:11.061Z,1020.75
2022-10-19T10:02:11.038Z,1020.77
2022-10-19T10:03:11.183Z,1020.76
2022-10-19T10:04:11.024Z,1020.76
2022-10-19T10:05:11.011Z,1020.77
2022-10-19T10:06:10.988Z,1020.74
2022-10-19T10:07:11.023Z,1020.73
2022-10-19T10:08:10.981Z,1020.69
2022-10-19T10:09:11.241Z,1020.67
2022-10-19T10:10:10.954Z,1020.64
2022-10-19T10:11:10.944Z,1020.62
2022-10-19T10:12:10.920Z,1020.61
2022-10-19T10:13:10.956Z,1020.57
2022-10-19T10:14:10.904Z,1020.57
2022-10-19T10:15:11.025Z,1020.55
2022-10-19T10:16:10.879Z,1020.55
2022-10-19T10:17:10.893Z,1020.55
2022-10-19T10:18:10.877Z,1020.56
2022-10-19T10:19:10.862Z,1020.52
2022-10-19T10:20:10.838Z,1020.55
2022-10-19T10:21:10.880Z,1020.53
2022-10-19T10:22:10.813Z,1020.51
2022-10-19T10:23:10.823Z,1020.53
2022-10-19T10:24:10.790Z,1020.52
2022-10-19T10:25:10.847Z,1020.48
2022-10-19T10:26:10.769Z,1020.43
2022-10-19T10:27:10.835Z,1020.42
2022-10-19T10:28:10.753Z,1020.41
2022-10-19T10:29:10.786Z,1020.38
2022-10-19T10:30:10.728Z,1020.37
2022-10-19T10:31:10.748Z,1020.33
2022-10-19T10:32:10.739Z,1020.34
2022-10-19T10:33:26.404Z,1020.32
2022-10-19T10:34:22.666Z,1020.32
2022-10-19T10:35:10.731Z,1020.31
2022-10-19T10:36:10.668Z,1020.32
2022-10-19T10:37:10.673Z,1020.30
2022-10-19T10:38:10.650Z,1020.26
2022-10-19T10:39:10.683Z,1020.25
2022-10-19T10:40:10.623Z,1020.26
2022-10-19T10:41:10.623Z,1020.29
2022-10-19T10:42:10.609Z,1020.29
2022-10-19T10:43:10.600Z,1020.30
2022-10-19T10:44:10.799Z,1020.33
2022-10-19T10:45:10.603Z,1020.35
2022-10-19T10:46:10.563Z,1020.37
2022-10-19T10:47:10.559Z,1020.39
2022-10-19T10:48:10.536Z,1020.41
2022-10-19T10:49:10.542Z,1020.38
2022-10-19T10:50:10.511Z,1020.37
2022-10-19T10:51:10.543Z,1020.36
2022-10-19T10:52:10.502Z,1020.32
2022-10-19T10:53:10.493Z,1020.30
2022-10-19T10:54:10.473Z,1020.27
2022-10-19T10:55:10.506Z,1020.25
2022-10-19T10:56:10.445Z,1020.21
2022-10-19T10:57:10.514Z,1020.22
2022-10-19T10:58:10.428Z,1020.18
2022-10-19T10:59:10.575Z,1020.18
2022-10-19T11:00:10.420Z,1020.19
2022-10-19T11:01:10.409Z,1020.16
2022-10-19T11:02:10.525Z,1020.12
2022-10-19T11:03:10.413Z,1020.11
2022-10-19T11:04:10.365Z,1020.10
2022-10-19T11:05:10.376Z,1020.11
2022-10-19T11:06:10.351Z,1020.12
2022-10-19T11:07:10.341Z,1020.14
2022-10-19T11:08:10.325Z,1020.12
2022-10-19T11:09:10.408Z,1020.14
2022-10-19T11:10:10.295Z,1020.16
2022-10-19T11:11:10.301Z,1020.14
2022-10-19T11:12:10.279Z,1020.11
2022-10-19T11:13:10.284Z,1020.09
2022-10-19T11:14:10.256Z,1020.05
2022-10-19T11:15:10.289Z,1020.01
2022-10-19T11:16:10.238Z,1020.04
2022-10-19T11:17:10.234Z,1020.00
2022-10-19T11:18:10.212Z,1019.96
2022-10-19T11:19:10.270Z,1019.96
2022-10-19T11:20:10.189Z,1019.95
2022-10-19T11:21:10.234Z,1019.93
2022-10-19T11:22:10.166Z,1019.84
2022-10-19T11:23:10.175Z,1019.84
2022-10-19T11:24:10.148Z,1019.79
2022-10-19T11:25:10.147Z,1019.79
2022-10-19T11:26:10.129Z,1019.76
2022-10-19T11:27:10.154Z,1019.73
2022-10-19T11:28:10.100Z,1019.73
2022-10-19T11:29:10.107Z,1019.71
2022-10-19T11:30:10.080Z,1019.70
2022-10-19T11:31:10.092Z,1019.66
2022-10-19T11:32:10.060Z,1019.68
2022-10-19T11:33:10.082Z,1019.65
2022-10-19T11:34:10.041Z,1019.64
2022-10-19T11:35:10.040Z,1019.62
2022-10-19T11:36:10.016Z,1019.65
2022-10-19T11:37:10.031Z,1019.63
2022-10-19T11:38:29.527Z,1019.60
2022-10-19T11:39:10.036Z,1019.59
2022-10-19T11:40:09.973Z,1019.55
2022-10-19T11:41:17.843Z,1019.50
2022-10-19T11:42:09.955Z,1019.47
2022-10-19T11:43:09.951Z,1019.42
2022-10-19T11:44:09.936Z,1019.39
2022-10-19T11:45:09.952Z,1019.37
2022-10-19T11:46:09.906Z,1019.34
2022-10-19T11:47:09.921Z,1019.31
2022-10-19T11:48:09.883Z,1019.32
2022-10-19T11:49:09.891Z,1019.28
2022-10-19T11:51:20.775Z,1019.25
2022-10-19T11:52:09.853Z,1019.28
2022-10-19T11:53:09.850Z,1019.26
2022-10-19T11:54:14.435Z,1019.26
2022-10-19T11:55:09.820Z,1019.22
2022-10-19T11:56:09.850Z,1019.21
2022-10-19T11:57:11.624Z,1019.20
2022-10-19T11:58:09.776Z,1019.16
2022-10-19T11:59:09.852Z,1019.13
2022-10-19T12:00:15.470Z,1019.10
2022-10-19T12:01:09.800Z,1019.11
2022-10-19T12:02:09.771Z,1019.11
2022-10-19T12:03:09.773Z,1019.07
2022-10-19T12:04:09.709Z,1019.11
2022-10-19T12:05:09.719Z,1019.06
2022-10-19T12:06:09.697Z,1019.08